Terminal Aerodrome Forecast
Issued by NWS Des Moines, IA

Home | Current Version | Previous Version | Text Only | Print | Product List | Glossary On
Versions: 1 2 3 4 5 6 7 8 9 10 11 12 13 14 15 16 17 18 19 20 21 22 23 24 25 26 27 28 29 30
000
FTUS43 KDMX 281739
TAFALO
TAF
KALO 281739Z 2818/2918 17012KT P6SM -RA VCTS SCT060CB BKN070 BKN090
     FM282300 21012G21KT P6SM TSRA BKN035CB
     FM290200 22009G17KT P6SM VCTS BKN040CB
     FM290300 21007KT P6SM SCT045
     FM291200 25004KT P6SM BKN080=

USA.gov is the U.S. government's official web portal to all federal, state and local government web resources and services.